createdAt,value
2022-08-30T00:01:22.787Z,6.55
2022-08-30T00:03:58.881Z,5.60
2022-08-30T00:06:33.113Z,8.00
2022-08-30T00:09:05.888Z,6.57
2022-08-30T00:11:38.234Z,8.60
2022-08-30T00:14:10.638Z,6.35
2022-08-30T00:16:42.787Z,8.25
2022-08-30T00:19:17.918Z,8.75
2022-08-30T00:21:50.058Z,7.93
2022-08-30T00:24:22.768Z,10.43
2022-08-30T00:26:55.917Z,7.00
2022-08-30T00:29:28.499Z,9.15
2022-08-30T00:32:01.601Z,8.20
2022-08-30T00:34:36.419Z,6.95
2022-08-30T00:37:07.797Z,9.27
2022-08-30T00:39:39.668Z,7.40
2022-08-30T00:42:12.504Z,6.93
2022-08-30T00:44:45.429Z,10.25
2022-08-30T00:47:17.549Z,7.40
2022-08-30T00:49:56.571Z,12.55
2022-08-30T00:52:28.055Z,9.10
2022-08-30T00:55:02.364Z,9.43
2022-08-30T00:57:36.061Z,8.40
2022-08-30T01:00:10.266Z,8.57
2022-08-30T01:02:42.693Z,9.45
2022-08-30T01:05:21.817Z,11.20
2022-08-30T01:07:53.767Z,10.07
2022-08-30T01:10:25.992Z,9.75
2022-08-30T01:12:57.449Z,10.48
2022-08-30T01:15:29.154Z,9.95
2022-08-30T01:18:07.820Z,9.32
2022-08-30T01:20:50.175Z,11.43
2022-08-30T01:23:25.320Z,8.85
2022-08-30T01:26:00.375Z,10.45
2022-08-30T01:28:33.975Z,10.18
2022-08-30T01:31:06.744Z,10.38
2022-08-30T01:33:40.665Z,11.80
2022-08-30T01:36:20.316Z,10.27
2022-08-30T01:38:57.072Z,9.88
2022-08-30T01:41:31.286Z,12.77
2022-08-30T01:44:05.056Z,8.35
2022-08-30T01:46:41.938Z,10.77
2022-08-30T01:49:27.624Z,13.40
2022-08-30T01:52:01.575Z,11.80
2022-08-30T01:54:38.608Z,12.00
2022-08-30T01:57:12.046Z,10.52
2022-08-30T01:59:48.238Z,13.05
2022-08-30T02:02:24.808Z,12.25
2022-08-30T02:04:57.484Z,14.50
2022-08-30T02:07:30.592Z,12.48
2022-08-30T02:10:05.382Z,14.18
2022-08-30T02:12:37.212Z,13.20
2022-08-30T02:15:10.489Z,13.35
2022-08-30T02:17:42.584Z,14.45
2022-08-30T02:20:17.487Z,13.30
2022-08-30T02:22:55.919Z,15.10
2022-08-30T02:25:31.748Z,12.80
2022-08-30T02:28:03.763Z,15.80
2022-08-30T02:30:35.028Z,16.77
2022-08-30T02:33:07.445Z,15.20
2022-08-30T02:35:39.515Z,16.15
2022-08-30T02:38:11.778Z,15.18
2022-08-30T02:40:47.531Z,15.77
2022-08-30T02:43:20.454Z,16.77
2022-08-30T02:45:53.339Z,15.80
2022-08-30T02:48:25.576Z,15.95
2022-08-30T02:50:57.523Z,14.45
2022-08-30T02:53:29.832Z,22.63
2022-08-30T02:56:05.973Z,18.60
2022-08-30T02:58:39.660Z,17.00
2022-08-30T03:01:13.604Z,21.10
2022-08-30T03:03:48.843Z,20.90
2022-08-30T03:06:22.214Z,23.17
2022-08-30T03:08:54.725Z,28.48
2022-08-30T03:11:30.247Z,28.10
2022-08-30T03:14:02.753Z,26.88
2022-08-30T03:16:35.899Z,27.70
2022-08-30T03:19:09.940Z,28.00
2022-08-30T03:21:42.494Z,25.77
2022-08-30T03:24:15.881Z,26.67
2022-08-30T03:26:50.514Z,24.73
2022-08-30T03:29:23.407Z,30.70
2022-08-30T03:31:56.355Z,18.63
2022-08-30T03:34:29.886Z,25.05
2022-08-30T03:37:02.188Z,24.45
2022-08-30T03:39:34.775Z,27.67
2022-08-30T03:42:11.200Z,22.88
2022-08-30T03:44:43.678Z,21.38
2022-08-30T03:47:16.287Z,20.23
2022-08-30T03:49:50.707Z,24.40
2022-08-30T03:52:22.667Z,22.20
2022-08-30T03:54:55.360Z,24.42
2022-08-30T03:57:30.249Z,23.48
2022-08-30T04:00:03.876Z,24.50
2022-08-30T04:02:36.136Z,28.27
2022-08-30T04:05:09.754Z,25.77
2022-08-30T04:07:42.423Z,27.77
2022-08-30T04:10:15.198Z,22.33
2022-08-30T04:12:49.997Z,26.02
2022-08-30T04:15:23.419Z,24.23
2022-08-30T04:17:55.889Z,26.85
2022-08-30T04:20:28.055Z,23.73
2022-08-30T04:22:59.908Z,24.77
2022-08-30T04:25:32.707Z,22.77
2022-08-30T04:28:08.986Z,25.00
2022-08-30T04:30:42.859Z,25.95
2022-08-30T04:33:17.644Z,24.67
2022-08-30T04:35:51.702Z,22.55
2022-08-30T04:38:29.904Z,25.92
2022-08-30T04:41:04.132Z,26.23
2022-08-30T04:43:40.042Z,27.40
2022-08-30T04:46:14.171Z,23.05
2022-08-30T04:48:49.545Z,25.08
2022-08-30T04:51:22.146Z,24.02
2022-08-30T04:53:53.687Z,26.00
2022-08-30T04:56:28.431Z,28.80
2022-08-30T04:59:02.637Z,23.02
2022-08-30T05:01:44.933Z,24.17
2022-08-30T05:04:21.429Z,25.13
2022-08-30T05:06:54.223Z,21.08
2022-08-30T05:09:26.360Z,23.77
2022-08-30T05:11:58.749Z,21.83
2022-08-30T05:14:34.452Z,23.58
2022-08-30T05:17:06.791Z,23.63
2022-08-30T05:19:38.734Z,20.38
2022-08-30T05:22:10.990Z,21.75
2022-08-30T05:24:42.741Z,18.42
2022-08-30T05:27:14.802Z,21.58
2022-08-30T05:29:49.240Z,20.83
2022-08-30T05:32:21.450Z,21.35
2022-08-30T05:34:55.441Z,18.52
2022-08-30T05:37:28.193Z,20.10
2022-08-30T05:40:00.085Z,18.75
2022-08-30T05:42:32.431Z,17.52
2022-08-30T05:45:08.329Z,19.90
2022-08-30T05:47:40.544Z,18.75
2022-08-30T05:50:12.744Z,15.98
2022-08-30T05:52:47.074Z,16.02
2022-08-30T05:55:19.419Z,17.17
2022-08-30T05:57:51.190Z,19.08
2022-08-30T06:00:26.928Z,16.92
2022-08-30T06:02:59.386Z,17.35
2022-08-30T06:05:31.269Z,17.02
2022-08-30T06:08:07.709Z,15.75
2022-08-30T06:10:39.810Z,16.50
2022-08-30T06:13:13.349Z,14.02
2022-08-30T06:15:48.239Z,15.45
2022-08-30T06:18:24.715Z,13.18
2022-08-30T06:21:01.109Z,15.00
2022-08-30T06:23:33.349Z,15.93
2022-08-30T06:26:07.647Z,16.30
2022-08-30T06:28:40.574Z,15.25
2022-08-30T06:31:18.072Z,17.55
2022-08-30T06:33:52.667Z,13.80
2022-08-30T06:36:27.305Z,14.98
2022-08-30T06:39:01.658Z,18.33
2022-08-30T06:41:35.389Z,15.00
2022-08-30T06:44:11.280Z,16.25
2022-08-30T06:46:45.278Z,16.67
2022-08-30T06:49:17.639Z,14.88
2022-08-30T06:51:49.048Z,14.70
2022-08-30T06:54:21.438Z,16.95
2022-08-30T06:56:58.622Z,13.80
2022-08-30T06:59:31.925Z,15.30
2022-08-30T07:02:06.101Z,18.90
2022-08-30T07:04:39.120Z,16.55
2022-08-30T07:07:16.863Z,19.08
2022-08-30T07:09:49.767Z,20.38
2022-08-30T07:12:20.985Z,19.80
2022-08-30T07:14:52.569Z,17.25
2022-08-30T07:17:38.825Z,15.57
2022-08-30T07:20:11.494Z,19.98
2022-08-30T07:22:42.687Z,18.90
2022-08-30T07:25:19.857Z,16.55
2022-08-30T07:27:52.315Z,15.73
2022-08-30T07:30:27.195Z,16.83
2022-08-30T07:33:01.568Z,16.50
2022-08-30T07:35:33.279Z,18.35
2022-08-30T07:38:04.676Z,17.27
2022-08-30T07:40:36.123Z,18.02
2022-08-30T07:43:07.314Z,14.63
2022-08-30T07:45:41.247Z,16.45
2022-08-30T07:48:16.190Z,17.10
2022-08-30T07:50:53.704Z,16.23
2022-08-30T07:53:28.792Z,16.08
2022-08-30T07:56:02.199Z,13.07
2022-08-30T07:58:38.049Z,12.90
2022-08-30T08:01:11.217Z,12.23
2022-08-30T08:03:50.871Z,10.70
2022-08-30T08:06:25.139Z,12.77
2022-08-30T08:08:58.249Z,12.73
2022-08-30T08:11:33.483Z,12.05
2022-08-30T08:14:07.919Z,11.55
2022-08-30T08:16:42.541Z,14.23
2022-08-30T08:19:17.935Z,9.30
2022-08-30T08:21:59.396Z,10.90
2022-08-30T08:24:40.998Z,8.93
2022-08-30T08:27:12.923Z,9.18
2022-08-30T08:29:44.339Z,7.68
2022-08-30T08:32:15.945Z,7.45
2022-08-30T08:34:49.937Z,7.20
2022-08-30T08:37:21.901Z,6.60
2022-08-30T08:39:59.946Z,9.40
2022-08-30T08:42:45.095Z,6.82
2022-08-30T08:45:22.023Z,8.10
2022-08-30T08:48:04.126Z,6.22
2022-08-30T08:51:02.667Z,5.05
2022-08-30T08:53:46.884Z,7.15
2022-08-30T08:56:23.255Z,5.47
2022-08-30T08:58:57.817Z,6.60
2022-08-30T09:01:35.165Z,3.88
2022-08-30T09:04:14.744Z,6.28
2022-08-30T09:06:57.461Z,4.63
2022-08-30T09:09:33.227Z,4.05
2022-08-30T09:12:06.171Z,5.70
2022-08-30T09:14:46.149Z,5.53
2022-08-30T09:17:23.921Z,4.13
2022-08-30T09:20:04.245Z,6.18
2022-08-30T09:22:41.010Z,4.65
2022-08-30T09:25:25.632Z,4.07
2022-08-30T09:27:58.783Z,6.40
2022-08-30T09:30:32.959Z,3.53
2022-08-30T09:33:08.075Z,3.42
2022-08-30T09:35:46.892Z,3.60
2022-08-30T09:38:26.593Z,3.63
2022-08-30T09:41:02.739Z,3.17
2022-08-30T09:43:37.335Z,5.90
2022-08-30T09:46:16.341Z,3.58
2022-08-30T09:48:49.281Z,2.22
2022-08-30T09:51:42.861Z,5.28
2022-08-30T09:54:26.770Z,2.05
2022-08-30T10:00:13.586Z,2.90
2022-08-30T10:03:34.947Z,1.98
2022-08-30T10:06:18.390Z,2.65
2022-08-30T10:09:06.857Z,1.98
2022-08-30T10:11:51.391Z,2.85
2022-08-30T10:14:49.882Z,3.65
2022-08-30T10:17:39.517Z,4.53
2022-08-30T10:20:19.546Z,3.20
2022-08-30T10:22:58.849Z,2.88
2022-08-30T10:25:36.527Z,2.92
2022-08-30T10:28:15.868Z,3.05
2022-08-30T10:30:55.747Z,2.58
2022-08-30T10:33:34.117Z,3.00
2022-08-30T10:36:13.554Z,3.67
2022-08-30T10:38:49.860Z,3.05
2022-08-30T10:41:32.522Z,2.33
2022-08-30T10:44:11.146Z,3.67
2022-08-30T10:46:51.773Z,2.17
2022-08-30T10:49:26.392Z,3.03
2022-08-30T10:52:04.997Z,2.85
2022-08-30T10:54:44.694Z,1.90
2022-08-30T10:57:18.023Z,1.95
2022-08-30T10:59:57.498Z,2.38
2022-08-30T11:02:53.078Z,2.25
2022-08-30T11:05:58.672Z,1.63
2022-08-30T11:08:48.486Z,3.55
2022-08-30T11:11:32.848Z,2.42
2022-08-30T11:14:07.388Z,2.05
2022-08-30T11:16:50.086Z,1.60
2022-08-30T11:19:27.287Z,3.00
2022-08-30T11:22:17.594Z,2.00
2022-08-30T11:25:10.052Z,1.80
2022-08-30T11:27:45.973Z,1.85
2022-08-30T11:30:48.486Z,2.83
2022-08-30T11:33:48.606Z,2.97
2022-08-30T11:37:10.115Z,4.47
2022-08-30T11:40:02.063Z,2.33
2022-08-30T11:42:49.152Z,4.15
2022-08-30T11:45:57.531Z,3.45
2022-08-30T11:48:55.840Z,2.40
2022-08-30T11:52:23.623Z,3.38
2022-08-30T11:55:06.920Z,4.40
2022-08-30T11:57:49.896Z,2.60
2022-08-30T12:00:41.835Z,3.35
2022-08-30T12:03:35.130Z,3.72
2022-08-30T12:06:12.471Z,4.15
2022-08-30T12:09:02.305Z,4.22
2022-08-30T12:11:59.916Z,4.35
2022-08-30T12:14:48.012Z,2.20
2022-08-30T12:17:46.390Z,2.42
2022-08-30T12:20:25.112Z,2.80
2022-08-30T12:23:20.442Z,3.00
2022-08-30T12:26:14.607Z,2.47
2022-08-30T12:28:51.228Z,3.55
2022-08-30T12:31:28.710Z,2.13
2022-08-30T12:34:03.969Z,3.58
2022-08-30T12:36:41.608Z,4.57
2022-08-30T12:39:20.524Z,2.55
2022-08-30T12:41:53.060Z,4.95
2022-08-30T12:44:28.968Z,2.03
2022-08-30T12:47:08.287Z,3.47
2022-08-30T12:49:46.987Z,2.83
2022-08-30T12:52:31.337Z,4.45
2022-08-30T12:55:19.442Z,2.88
2022-08-30T12:58:05.824Z,3.78
2022-08-30T13:00:43.182Z,2.45
2022-08-30T13:03:37.282Z,3.72
2022-08-30T13:06:10.593Z,4.40
2022-08-30T13:08:54.763Z,4.18
2022-08-30T13:11:30.858Z,3.30
2022-08-30T13:14:33.833Z,3.35
2022-08-30T13:17:17.378Z,2.83
2022-08-30T13:20:01.250Z,3.80
2022-08-30T13:22:37.203Z,3.30
2022-08-30T13:25:11.376Z,3.72
2022-08-30T13:27:47.713Z,3.63
2022-08-30T13:30:25.603Z,3.50
2022-08-30T13:33:02.302Z,5.25
2022-08-30T13:35:35.323Z,3.55
2022-08-30T13:38:10.633Z,4.80
2022-08-30T13:40:45.927Z,4.07
2022-08-30T13:43:21.644Z,4.32
2022-08-30T13:45:54.394Z,4.28
2022-08-30T13:48:31.803Z,3.47
2022-08-30T13:51:06.133Z,4.30
2022-08-30T13:53:54.450Z,3.97
2022-08-30T13:56:28.155Z,4.65
2022-08-30T13:59:06.614Z,3.42
2022-08-30T14:04:33.107Z,3.92
2022-08-30T14:07:14.035Z,5.60
2022-08-30T14:09:50.118Z,6.15
2022-08-30T14:12:52.529Z,4.05
2022-08-30T14:15:18.265Z,4.13
2022-08-30T14:17:50.531Z,4.13
2022-08-30T14:20:24.167Z,3.40
2022-08-30T14:22:56.586Z,4.70
2022-08-30T14:25:30.415Z,5.32
2022-08-30T14:28:03.103Z,3.45
2022-08-30T14:30:39.245Z,3.53
2022-08-30T14:33:11.424Z,4.03
2022-08-30T14:35:45.884Z,3.30
2022-08-30T14:38:18.586Z,3.33
2022-08-30T14:40:51.304Z,3.17
2022-08-30T14:43:23.855Z,4.32
2022-08-30T14:46:01.572Z,4.05
2022-08-30T14:48:33.874Z,5.25
2022-08-30T14:51:14.725Z,4.85
2022-08-30T14:53:46.865Z,3.92
2022-08-30T14:56:21.743Z,4.72
2022-08-30T14:59:00.769Z,5.43
2022-08-30T15:01:37.326Z,4.78
2022-08-30T15:04:11.107Z,6.47
2022-08-30T15:06:45.484Z,4.72
2022-08-30T15:09:23.507Z,5.55
2022-08-30T15:11:58.843Z,4.00
2022-08-30T15:14:32.366Z,4.75
2022-08-30T15:17:07.885Z,3.75
2022-08-30T15:19:40.065Z,4.47
2022-08-30T15:22:12.905Z,4.30
2022-08-30T15:24:49.150Z,4.90
2022-08-30T15:27:24.184Z,4.53
2022-08-30T15:29:56.463Z,5.70
2022-08-30T15:32:32.175Z,3.92
2022-08-30T15:35:04.625Z,4.50
2022-08-30T15:37:38.043Z,5.13
2022-08-30T15:40:11.895Z,5.07
2022-08-30T15:42:45.565Z,4.20
2022-08-30T15:45:19.067Z,4.13
2022-08-30T15:47:55.004Z,5.88
2022-08-30T15:50:27.543Z,4.18
2022-08-30T15:53:00.945Z,4.88
2022-08-30T15:55:33.385Z,3.20
2022-08-30T15:58:06.864Z,4.18
2022-08-30T16:00:44.151Z,4.47
2022-08-30T16:03:20.264Z,5.38
2022-08-30T16:05:52.472Z,5.25
2022-08-30T16:08:25.525Z,3.42
2022-08-30T16:10:58.204Z,4.95
2022-08-30T16:13:31.685Z,6.43
2022-08-30T16:16:04.367Z,3.40
2022-08-30T16:18:40.384Z,5.13
2022-08-30T16:21:15.405Z,3.08
2022-08-30T16:23:49.925Z,3.47
2022-08-30T16:26:22.305Z,3.08
2022-08-30T16:28:55.086Z,2.83
2022-08-30T16:31:28.923Z,4.35
2022-08-30T16:34:04.484Z,5.60
2022-08-30T16:36:37.654Z,3.17
2022-08-30T16:39:13.044Z,2.70
2022-08-30T16:41:46.595Z,4.10
2022-08-30T16:44:19.536Z,3.25
2022-08-30T16:46:53.190Z,2.90
2022-08-30T16:49:28.958Z,3.35
2022-08-30T16:52:00.939Z,4.13
2022-08-30T16:54:34.548Z,4.95
2022-08-30T16:57:06.632Z,4.25
2022-08-30T16:59:40.002Z,3.13
2022-08-30T17:02:14.421Z,5.32
2022-08-30T17:04:52.883Z,3.88
2022-08-30T17:07:37.429Z,2.92
2022-08-30T17:10:13.270Z,3.72
2022-08-30T17:12:45.888Z,4.82
2022-08-30T17:15:20.327Z,4.47
2022-08-30T17:17:52.890Z,4.28
2022-08-30T17:20:31.714Z,2.80
2022-08-30T17:23:05.887Z,3.70
2022-08-30T17:25:56.689Z,4.63
2022-08-30T17:28:29.068Z,5.80
2022-08-30T17:31:02.384Z,4.25
2022-08-30T17:33:38.567Z,2.88
2022-08-30T17:36:15.028Z,3.88
2022-08-30T17:38:47.429Z,3.40
2022-08-30T17:41:19.887Z,5.38
2022-08-30T17:43:52.941Z,3.53
2022-08-30T17:46:28.011Z,4.75
2022-08-30T17:49:04.606Z,4.97
2022-08-30T17:51:43.108Z,8.77
2022-08-30T17:54:20.408Z,4.38
2022-08-30T17:56:57.358Z,4.63
2022-08-30T17:59:32.422Z,3.97
2022-08-30T18:02:07.300Z,4.60
2022-08-30T18:04:43.949Z,3.13
2022-08-30T18:07:23.006Z,5.97
2022-08-30T18:09:58.833Z,4.20
2022-08-30T18:12:33.763Z,4.75
2022-08-30T18:15:12.207Z,5.60
2022-08-30T18:17:48.033Z,5.50
2022-08-30T18:20:22.333Z,2.78
2022-08-30T18:23:02.338Z,5.72
2022-08-30T18:25:34.719Z,4.70
2022-08-30T18:28:08.257Z,5.72
2022-08-30T18:30:45.428Z,4.57
2022-08-30T18:33:18.819Z,3.13
2022-08-30T18:35:52.438Z,6.25
2022-08-30T18:38:28.181Z,3.22
2022-08-30T18:41:02.999Z,4.25
2022-08-30T18:43:36.161Z,3.10
2022-08-30T18:46:11.643Z,2.97
2022-08-30T18:48:44.859Z,4.63
2022-08-30T18:51:20.338Z,3.33
2022-08-30T18:53:57.758Z,3.75
2022-08-30T18:56:33.101Z,5.22
2022-08-30T18:59:08.122Z,4.50
2022-08-30T19:01:42.800Z,5.28
2022-08-30T19:04:22.439Z,5.15
2022-08-30T19:07:07.212Z,3.42
2022-08-30T19:09:43.147Z,5.30
2022-08-30T19:12:16.818Z,5.35
2022-08-30T19:14:49.884Z,6.40
2022-08-30T19:17:22.187Z,5.00
2022-08-30T19:19:56.272Z,4.25
2022-08-30T19:22:39.915Z,4.57
2022-08-30T19:25:25.596Z,3.83
2022-08-30T19:27:57.358Z,4.78
2022-08-30T19:30:31.103Z,6.03
2022-08-30T19:33:03.624Z,6.43
2022-08-30T19:35:41.066Z,6.05
2022-08-30T19:38:14.404Z,5.18
2022-08-30T19:40:54.716Z,4.75
2022-08-30T19:43:30.716Z,5.95
2022-08-30T19:46:04.725Z,6.75
2022-08-30T19:48:42.205Z,5.53
2022-08-30T19:51:18.269Z,4.75
2022-08-30T19:53:50.670Z,7.40
2022-08-30T19:56:25.668Z,4.75
2022-08-30T19:58:57.602Z,5.60
2022-08-30T20:01:33.946Z,6.30
2022-08-30T20:04:06.935Z,7.03
2022-08-30T20:06:39.340Z,6.25
2022-08-30T20:09:14.569Z,6.97
2022-08-30T20:11:55.172Z,5.43
2022-08-30T20:14:29.711Z,6.22
2022-08-30T20:17:02.367Z,7.60
2022-08-30T20:19:34.422Z,6.68
2022-08-30T20:22:08.589Z,5.45
2022-08-30T20:24:43.912Z,3.60
2022-08-30T20:27:21.358Z,4.35
2022-08-30T20:29:56.031Z,3.75
2022-08-30T20:32:28.368Z,4.03
2022-08-30T20:35:00.221Z,4.20
2022-08-30T20:37:33.619Z,4.18
2022-08-30T20:40:05.695Z,3.15
2022-08-30T20:42:45.766Z,4.15
2022-08-30T20:45:22.010Z,4.25
2022-08-30T20:47:55.155Z,3.17
2022-08-30T20:50:30.529Z,3.38
2022-08-30T20:53:02.954Z,3.90
2022-08-30T20:55:34.947Z,3.75
2022-08-30T20:58:11.968Z,3.15
2022-08-30T21:00:45.894Z,3.85
2022-08-30T21:03:25.925Z,3.30
2022-08-30T21:06:02.611Z,2.97
2022-08-30T21:08:34.677Z,3.22
2022-08-30T21:11:13.866Z,2.88
2022-08-30T21:13:52.945Z,2.88
2022-08-30T21:16:27.286Z,2.92
2022-08-30T21:19:04.160Z,3.33
2022-08-30T21:21:40.606Z,4.10
2022-08-30T21:24:15.730Z,2.60
2022-08-30T21:26:49.717Z,4.55
2022-08-30T21:29:27.618Z,2.90
2022-08-30T21:32:01.991Z,2.70
2022-08-30T21:34:54.329Z,3.38
2022-08-30T21:37:33.074Z,5.03
2022-08-30T21:40:12.043Z,2.60
2022-08-30T21:42:48.923Z,3.58
2022-08-30T21:45:26.921Z,4.03
2022-08-30T21:47:58.658Z,1.95
2022-08-30T21:50:32.352Z,3.50
2022-08-30T21:53:06.904Z,3.70
2022-08-30T21:55:43.756Z,3.63
2022-08-30T21:58:19.087Z,3.10
2022-08-30T22:00:56.522Z,4.63
2022-08-30T22:03:28.628Z,4.03
2022-08-30T22:06:06.949Z,2.08
2022-08-30T22:08:42.238Z,3.05
2022-08-30T22:11:21.863Z,3.97
2022-08-30T22:13:55.252Z,3.15
2022-08-30T22:16:31.741Z,4.22
2022-08-30T22:19:05.040Z,2.78
2022-08-30T22:21:45.073Z,5.10
2022-08-30T22:24:17.608Z,2.47
2022-08-30T22:26:52.385Z,3.58
2022-08-30T22:29:26.243Z,4.07
2022-08-30T22:32:04.552Z,6.13
2022-08-30T22:34:36.405Z,3.55
2022-08-30T22:37:09.142Z,3.78
2022-08-30T22:39:40.872Z,2.67
2022-08-30T22:42:13.646Z,2.85
2022-08-30T22:44:45.140Z,5.20
2022-08-30T22:47:19.760Z,5.70
2022-08-30T22:49:51.391Z,4.93
2022-08-30T22:52:25.214Z,3.10
2022-08-30T22:55:03.842Z,6.07
2022-08-30T22:57:37.751Z,2.53
2022-08-30T23:00:20.629Z,4.57
2022-08-30T23:03:00.714Z,2.72
2022-08-30T23:05:32.006Z,3.80
2022-08-30T23:08:06.380Z,5.85
2022-08-30T23:10:38.573Z,3.70
2022-08-30T23:13:10.913Z,2.90
2022-08-30T23:15:42.713Z,3.42
2022-08-30T23:18:17.663Z,3.55
2022-08-30T23:20:49.593Z,3.92
2022-08-30T23:23:34.383Z,4.90
2022-08-30T23:26:18.612Z,3.85
2022-08-30T23:29:03.274Z,4.97
2022-08-30T23:31:47.712Z,4.57
2022-08-30T23:34:35.262Z,4.20
2022-08-30T23:37:19.651Z,3.75
2022-08-30T23:40:04.345Z,2.63
2022-08-30T23:45:45.017Z,3.40
2022-08-30T23:48:29.948Z,2.88
2022-08-30T23:51:22.065Z,3.60
2022-08-30T23:54:06.344Z,2.72
2022-08-30T23:56:50.840Z,2.97
2022-08-30T23:59:34.731Z,5.70
